sensor_id;sensor_type;location;lat;lon;timestamp;P1;durP1;ratioP1;P2;durP2;ratioP2
51312;SDS011;37397;53.226;10.400;2023-08-17T00:01:33;8.13;;;2.10;;
51312;SDS011;37397;53.226;10.400;2023-08-17T00:04:00;7.10;;;2.55;;
51312;SDS011;37397;53.226;10.400;2023-08-17T00:06:27;4.95;;;1.80;;
51312;SDS011;37397;53.226;10.400;2023-08-17T00:08:53;7.30;;;2.20;;
51312;SDS011;37397;53.226;10.400;2023-08-17T00:11:20;6.38;;;2.20;;
51312;SDS011;37397;53.226;10.400;2023-08-17T00:13:46;7.88;;;2.30;;
51312;SDS011;37397;53.226;10.400;2023-08-17T00:16:13;7.57;;;2.10;;
51312;SDS011;37397;53.226;10.400;2023-08-17T00:18:39;6.60;;;2.10;;
51312;SDS011;37397;53.226;10.400;2023-08-17T00:21:06;6.05;;;2.00;;
51312;SDS011;37397;53.226;10.400;2023-08-17T00:23:32;7.00;;;2.10;;
51312;SDS011;37397;53.226;10.400;2023-08-17T00:25:59;5.78;;;1.80;;
51312;SDS011;37397;53.226;10.400;2023-08-17T00:28:26;6.65;;;2.20;;
51312;SDS011;37397;53.226;10.400;2023-08-17T00:30:53;5.28;;;1.95;;
51312;SDS011;37397;53.226;10.400;2023-08-17T00:33:19;7.15;;;2.08;;
51312;SDS011;37397;53.226;10.400;2023-08-17T00:35:46;8.02;;;2.38;;
51312;SDS011;37397;53.226;10.400;2023-08-17T00:38:13;5.13;;;1.95;;
51312;SDS011;37397;53.226;10.400;2023-08-17T00:40:39;7.05;;;2.38;;
51312;SDS011;37397;53.226;10.400;2023-08-17T00:43:06;6.45;;;2.20;;
51312;SDS011;37397;53.226;10.400;2023-08-17T00:45:33;9.40;;;2.38;;
51312;SDS011;37397;53.226;10.400;2023-08-17T00:48:02;5.57;;;1.95;;
51312;SDS011;37397;53.226;10.400;2023-08-17T00:50:34;7.53;;;2.28;;
51312;SDS011;37397;53.226;10.400;2023-08-17T00:53:01;4.95;;;1.90;;
51312;SDS011;37397;53.226;10.400;2023-08-17T00:55:29;6.97;;;1.95;;
51312;SDS011;37397;53.226;10.400;2023-08-17T00:57:56;6.05;;;1.98;;
51312;SDS011;37397;53.226;10.400;2023-08-17T01:00:24;5.05;;;2.00;;
51312;SDS011;37397;53.226;10.400;2023-08-17T01:02:54;5.20;;;2.15;;
51312;SDS011;37397;53.226;10.400;2023-08-17T01:05:23;5.20;;;2.05;;
51312;SDS011;37397;53.226;10.400;2023-08-17T01:07:49;6.32;;;2.47;;
51312;SDS011;37397;53.226;10.400;2023-08-17T01:10:16;6.03;;;2.03;;
51312;SDS011;37397;53.226;10.400;2023-08-17T01:12:47;5.93;;;2.22;;
51312;SDS011;37397;53.226;10.400;2023-08-17T01:15:27;8.70;;;2.35;;
51312;SDS011;37397;53.226;10.400;2023-08-17T01:18:13;6.55;;;2.10;;
51312;SDS011;37397;53.226;10.400;2023-08-17T01:20:48;6.32;;;2.28;;
51312;SDS011;37397;53.226;10.400;2023-08-17T01:23:16;6.63;;;1.95;;
51312;SDS011;37397;53.226;10.400;2023-08-17T01:25:42;8.55;;;2.20;;
51312;SDS011;37397;53.226;10.400;2023-08-17T01:28:09;7.10;;;2.10;;
51312;SDS011;37397;53.226;10.400;2023-08-17T01:33:28;5.07;;;1.95;;
51312;SDS011;37397;53.226;10.400;2023-08-17T01:36:03;5.80;;;2.30;;
51312;SDS011;37397;53.226;10.400;2023-08-17T01:38:35;8.05;;;2.28;;
51312;SDS011;37397;53.226;10.400;2023-08-17T01:41:02;6.53;;;2.20;;
51312;SDS011;37397;53.226;10.400;2023-08-17T01:43:30;6.80;;;2.20;;
51312;SDS011;37397;53.226;10.400;2023-08-17T01:45:58;5.15;;;1.73;;
51312;SDS011;37397;53.226;10.400;2023-08-17T01:48:25;6.50;;;2.22;;
51312;SDS011;37397;53.226;10.400;2023-08-17T01:50:52;7.75;;;1.92;;
51312;SDS011;37397;53.226;10.400;2023-08-17T01:53:19;5.80;;;1.88;;
51312;SDS011;37397;53.226;10.400;2023-08-17T01:55:46;4.38;;;1.92;;
51312;SDS011;37397;53.226;10.400;2023-08-17T01:58:12;6.40;;;2.00;;
51312;SDS011;37397;53.226;10.400;2023-08-17T02:00:40;8.38;;;2.25;;
51312;SDS011;37397;53.226;10.400;2023-08-17T02:03:07;5.53;;;2.22;;
51312;SDS011;37397;53.226;10.400;2023-08-17T02:05:33;6.28;;;2.15;;
51312;SDS011;37397;53.226;10.400;2023-08-17T02:08:00;5.38;;;2.15;;
51312;SDS011;37397;53.226;10.400;2023-08-17T02:10:27;5.13;;;1.90;;
51312;SDS011;37397;53.226;10.400;2023-08-17T02:12:54;4.07;;;1.88;;
51312;SDS011;37397;53.226;10.400;2023-08-17T02:15:31;6.80;;;1.88;;
51312;SDS011;37397;53.226;10.400;2023-08-17T02:18:00;7.55;;;2.10;;
51312;SDS011;37397;53.226;10.400;2023-08-17T02:20:27;7.80;;;2.40;;
51312;SDS011;37397;53.226;10.400;2023-08-17T02:22:54;7.20;;;1.90;;
51312;SDS011;37397;53.226;10.400;2023-08-17T02:25:22;5.85;;;2.00;;
51312;SDS011;37397;53.226;10.400;2023-08-17T02:27:50;4.20;;;1.60;;
51312;SDS011;37397;53.226;10.400;2023-08-17T02:30:17;5.05;;;2.08;;
51312;SDS011;37397;53.226;10.400;2023-08-17T02:32:43;5.45;;;1.77;;
51312;SDS011;37397;53.226;10.400;2023-08-17T02:35:10;7.32;;;2.20;;
51312;SDS011;37397;53.226;10.400;2023-08-17T02:37:36;8.45;;;2.00;;
51312;SDS011;37397;53.226;10.400;2023-08-17T02:40:03;5.72;;;1.92;;
51312;SDS011;37397;53.226;10.400;2023-08-17T02:42:30;7.82;;;2.10;;
51312;SDS011;37397;53.226;10.400;2023-08-17T02:44:57;7.78;;;2.00;;
51312;SDS011;37397;53.226;10.400;2023-08-17T02:47:23;5.97;;;1.92;;
51312;SDS011;37397;53.226;10.400;2023-08-17T02:49:51;7.15;;;2.17;;
51312;SDS011;37397;53.226;10.400;2023-08-17T02:52:18;6.25;;;2.10;;
51312;SDS011;37397;53.226;10.400;2023-08-17T02:54:44;10.95;;;2.28;;
51312;SDS011;37397;53.226;10.400;2023-08-17T02:57:11;5.50;;;1.80;;
51312;SDS011;37397;53.226;10.400;2023-08-17T02:59:38;4.90;;;1.88;;
51312;SDS011;37397;53.226;10.400;2023-08-17T03:02:05;6.60;;;2.28;;
51312;SDS011;37397;53.226;10.400;2023-08-17T03:04:34;5.78;;;2.30;;
51312;SDS011;37397;53.226;10.400;2023-08-17T03:07:00;6.25;;;2.13;;
51312;SDS011;37397;53.226;10.400;2023-08-17T03:09:27;5.90;;;2.38;;
51312;SDS011;37397;53.226;10.400;2023-08-17T03:11:54;6.95;;;2.30;;
51312;SDS011;37397;53.226;10.400;2023-08-17T03:14:21;5.53;;;1.98;;
51312;SDS011;37397;53.226;10.400;2023-08-17T03:16:48;4.90;;;1.98;;
51312;SDS011;37397;53.226;10.400;2023-08-17T03:19:14;7.35;;;2.10;;
51312;SDS011;37397;53.226;10.400;2023-08-17T03:21:43;4.75;;;2.13;;
51312;SDS011;37397;53.226;10.400;2023-08-17T03:24:09;5.63;;;2.28;;
51312;SDS011;37397;53.226;10.400;2023-08-17T03:26:36;8.02;;;2.50;;
51312;SDS011;37397;53.226;10.400;2023-08-17T03:29:02;6.65;;;2.55;;
51312;SDS011;37397;53.226;10.400;2023-08-17T03:31:30;5.82;;;2.20;;
51312;SDS011;37397;53.226;10.400;2023-08-17T03:33:57;8.57;;;2.70;;
51312;SDS011;37397;53.226;10.400;2023-08-17T03:36:23;11.35;;;2.45;;
51312;SDS011;37397;53.226;10.400;2023-08-17T03:38:51;6.47;;;2.10;;
51312;SDS011;37397;53.226;10.400;2023-08-17T03:41:18;7.40;;;2.50;;
51312;SDS011;37397;53.226;10.400;2023-08-17T03:43:45;7.18;;;2.40;;
51312;SDS011;37397;53.226;10.400;2023-08-17T03:46:12;4.40;;;2.05;;
51312;SDS011;37397;53.226;10.400;2023-08-17T03:48:39;5.38;;;2.08;;
51312;SDS011;37397;53.226;10.400;2023-08-17T03:51:06;5.32;;;2.15;;
51312;SDS011;37397;53.226;10.400;2023-08-17T03:53:32;4.40;;;2.20;;
51312;SDS011;37397;53.226;10.400;2023-08-17T03:55:59;5.68;;;1.90;;
51312;SDS011;37397;53.226;10.400;2023-08-17T03:58:25;4.68;;;2.03;;
51312;SDS011;37397;53.226;10.400;2023-08-17T04:00:53;4.70;;;1.98;;
51312;SDS011;37397;53.226;10.400;2023-08-17T04:03:25;6.00;;;1.98;;
51312;SDS011;37397;53.226;10.400;2023-08-17T04:05:52;6.28;;;2.42;;
51312;SDS011;37397;53.226;10.400;2023-08-17T04:08:19;6.63;;;2.40;;
51312;SDS011;37397;53.226;10.400;2023-08-17T04:10:46;4.50;;;2.15;;
51312;SDS011;37397;53.226;10.400;2023-08-17T04:13:12;5.25;;;2.40;;
51312;SDS011;37397;53.226;10.400;2023-08-17T04:15:39;4.05;;;2.22;;
51312;SDS011;37397;53.226;10.400;2023-08-17T04:18:05;6.93;;;2.25;;
51312;SDS011;37397;53.226;10.400;2023-08-17T04:20:32;6.40;;;2.65;;
51312;SDS011;37397;53.226;10.400;2023-08-17T04:22:58;5.55;;;2.38;;
51312;SDS011;37397;53.226;10.400;2023-08-17T04:25:25;7.22;;;2.50;;
51312;SDS011;37397;53.226;10.400;2023-08-17T04:27:52;6.53;;;2.45;;
51312;SDS011;37397;53.226;10.400;2023-08-17T04:30:19;6.53;;;2.45;;
51312;SDS011;37397;53.226;10.400;2023-08-17T04:32:52;5.80;;;2.53;;
51312;SDS011;37397;53.226;10.400;2023-08-17T04:35:20;4.82;;;2.22;;
51312;SDS011;37397;53.226;10.400;2023-08-17T04:37:47;7.72;;;2.53;;
51312;SDS011;37397;53.226;10.400;2023-08-17T04:40:14;6.78;;;2.63;;
51312;SDS011;37397;53.226;10.400;2023-08-17T04:42:41;5.40;;;2.50;;
51312;SDS011;37397;53.226;10.400;2023-08-17T04:45:09;7.53;;;2.88;;
51312;SDS011;37397;53.226;10.400;2023-08-17T04:47:40;9.38;;;3.13;;
51312;SDS011;37397;53.226;10.400;2023-08-17T04:50:07;6.18;;;2.42;;
51312;SDS011;37397;53.226;10.400;2023-08-17T04:52:47;7.13;;;2.92;;
51312;SDS011;37397;53.226;10.400;2023-08-17T04:55:14;5.07;;;2.58;;
51312;SDS011;37397;53.226;10.400;2023-08-17T04:57:41;6.93;;;2.47;;
51312;SDS011;37397;53.226;10.400;2023-08-17T05:00:10;6.57;;;2.90;;
51312;SDS011;37397;53.226;10.400;2023-08-17T05:02:38;8.52;;;3.13;;
51312;SDS011;37397;53.226;10.400;2023-08-17T05:05:06;6.90;;;2.88;;
51312;SDS011;37397;53.226;10.400;2023-08-17T05:07:33;9.50;;;2.78;;
51312;SDS011;37397;53.226;10.400;2023-08-17T05:10:00;8.20;;;3.17;;
51312;SDS011;37397;53.226;10.400;2023-08-17T05:12:29;7.05;;;2.50;;
51312;SDS011;37397;53.226;10.400;2023-08-17T05:14:57;8.90;;;2.72;;
51312;SDS011;37397;53.226;10.400;2023-08-17T05:17:25;7.03;;;2.50;;
51312;SDS011;37397;53.226;10.400;2023-08-17T05:19:51;8.40;;;2.58;;
51312;SDS011;37397;53.226;10.400;2023-08-17T05:22:18;6.22;;;2.63;;
51312;SDS011;37397;53.226;10.400;2023-08-17T05:24:45;8.10;;;2.80;;
51312;SDS011;37397;53.226;10.400;2023-08-17T05:27:11;6.10;;;2.88;;
51312;SDS011;37397;53.226;10.400;2023-08-17T05:29:38;6.45;;;2.75;;
51312;SDS011;37397;53.226;10.400;2023-08-17T05:32:04;6.47;;;2.65;;
51312;SDS011;37397;53.226;10.400;2023-08-17T05:34:34;7.38;;;2.60;;
51312;SDS011;37397;53.226;10.400;2023-08-17T05:37:00;7.00;;;2.97;;
51312;SDS011;37397;53.226;10.400;2023-08-17T05:39:28;5.05;;;2.40;;
51312;SDS011;37397;53.226;10.400;2023-08-17T05:41:54;4.93;;;2.30;;
51312;SDS011;37397;53.226;10.400;2023-08-17T05:44:21;8.98;;;2.75;;
51312;SDS011;37397;53.226;10.400;2023-08-17T05:46:48;7.90;;;2.80;;
51312;SDS011;37397;53.226;10.400;2023-08-17T05:49:14;6.85;;;2.65;;
51312;SDS011;37397;53.226;10.400;2023-08-17T05:51:41;5.43;;;2.70;;
51312;SDS011;37397;53.226;10.400;2023-08-17T05:54:08;7.53;;;2.67;;
51312;SDS011;37397;53.226;10.400;2023-08-17T05:56:34;7.05;;;2.47;;
51312;SDS011;37397;53.226;10.400;2023-08-17T05:59:00;8.57;;;2.97;;
51312;SDS011;37397;53.226;10.400;2023-08-17T06:01:27;7.57;;;3.42;;
51312;SDS011;37397;53.226;10.400;2023-08-17T06:03:54;8.43;;;3.05;;
51312;SDS011;37397;53.226;10.400;2023-08-17T06:06:21;10.20;;;2.80;;
51312;SDS011;37397;53.226;10.400;2023-08-17T06:08:47;6.43;;;2.95;;
51312;SDS011;37397;53.226;10.400;2023-08-17T06:11:14;6.53;;;2.42;;
51312;SDS011;37397;53.226;10.400;2023-08-17T06:13:40;5.85;;;2.30;;
51312;SDS011;37397;53.226;10.400;2023-08-17T06:16:07;8.45;;;2.80;;
51312;SDS011;37397;53.226;10.400;2023-08-17T06:18:33;6.07;;;2.50;;
51312;SDS011;37397;53.226;10.400;2023-08-17T06:21:00;7.13;;;2.08;;
51312;SDS011;37397;53.226;10.400;2023-08-17T06:23:28;5.20;;;2.10;;
51312;SDS011;37397;53.226;10.400;2023-08-17T06:25:58;3.53;;;1.63;;
51312;SDS011;37397;53.226;10.400;2023-08-17T06:28:25;6.35;;;2.20;;
51312;SDS011;37397;53.226;10.400;2023-08-17T06:30:53;4.93;;;1.85;;
51312;SDS011;37397;53.226;10.400;2023-08-17T06:33:20;5.82;;;1.83;;
51312;SDS011;37397;53.226;10.400;2023-08-17T06:35:51;5.15;;;1.90;;
51312;SDS011;37397;53.226;10.400;2023-08-17T06:38:17;3.63;;;1.48;;
51312;SDS011;37397;53.226;10.400;2023-08-17T06:40:45;4.30;;;1.60;;
51312;SDS011;37397;53.226;10.400;2023-08-17T06:43:12;5.10;;;1.88;;
51312;SDS011;37397;53.226;10.400;2023-08-17T06:45:38;4.18;;;1.75;;
51312;SDS011;37397;53.226;10.400;2023-08-17T06:48:05;3.67;;;1.77;;
51312;SDS011;37397;53.226;10.400;2023-08-17T06:50:33;6.05;;;1.50;;
51312;SDS011;37397;53.226;10.400;2023-08-17T06:53:00;4.65;;;1.80;;
51312;SDS011;37397;53.226;10.400;2023-08-17T06:55:28;4.40;;;1.80;;
51312;SDS011;37397;53.226;10.400;2023-08-17T06:57:54;5.40;;;1.77;;
51312;SDS011;37397;53.226;10.400;2023-08-17T07:00:21;3.15;;;1.40;;
51312;SDS011;37397;53.226;10.400;2023-08-17T07:02:48;2.72;;;1.65;;
51312;SDS011;37397;53.226;10.400;2023-08-17T07:05:21;2.85;;;1.65;;
51312;SDS011;37397;53.226;10.400;2023-08-17T07:07:48;2.70;;;1.55;;
51312;SDS011;37397;53.226;10.400;2023-08-17T07:10:14;3.63;;;1.55;;
51312;SDS011;37397;53.226;10.400;2023-08-17T07:12:41;3.85;;;1.65;;
51312;SDS011;37397;53.226;10.400;2023-08-17T07:15:07;3.63;;;1.42;;
51312;SDS011;37397;53.226;10.400;2023-08-17T07:17:34;5.18;;;1.73;;
51312;SDS011;37397;53.226;10.400;2023-08-17T07:20:03;5.10;;;1.75;;
51312;SDS011;37397;53.226;10.400;2023-08-17T07:22:33;3.53;;;1.63;;
51312;SDS011;37397;53.226;10.400;2023-08-17T07:25:00;4.00;;;1.63;;
51312;SDS011;37397;53.226;10.400;2023-08-17T07:27:26;2.35;;;1.40;;
51312;SDS011;37397;53.226;10.400;2023-08-17T07:29:53;3.20;;;1.60;;
51312;SDS011;37397;53.226;10.400;2023-08-17T07:32:20;4.57;;;1.63;;
51312;SDS011;37397;53.226;10.400;2023-08-17T07:34:47;4.05;;;1.77;;
51312;SDS011;37397;53.226;10.400;2023-08-17T07:37:14;3.08;;;1.50;;
51312;SDS011;37397;53.226;10.400;2023-08-17T07:39:41;3.97;;;1.60;;
51312;SDS011;37397;53.226;10.400;2023-08-17T07:42:08;4.15;;;1.60;;
51312;SDS011;37397;53.226;10.400;2023-08-17T07:44:34;4.10;;;1.95;;
51312;SDS011;37397;53.226;10.400;2023-08-17T07:47:01;3.75;;;1.70;;
51312;SDS011;37397;53.226;10.400;2023-08-17T07:49:28;4.13;;;1.55;;
51312;SDS011;37397;53.226;10.400;2023-08-17T07:52:15;3.47;;;1.63;;
51312;SDS011;37397;53.226;10.400;2023-08-17T07:54:42;3.00;;;1.50;;
51312;SDS011;37397;53.226;10.400;2023-08-17T07:57:08;3.65;;;1.70;;
51312;SDS011;37397;53.226;10.400;2023-08-17T07:59:35;2.88;;;1.70;;
51312;SDS011;37397;53.226;10.400;2023-08-17T08:02:01;3.53;;;1.83;;
51312;SDS011;37397;53.226;10.400;2023-08-17T08:04:28;4.85;;;1.80;;
51312;SDS011;37397;53.226;10.400;2023-08-17T08:06:54;4.50;;;1.70;;
51312;SDS011;37397;53.226;10.400;2023-08-17T08:09:21;4.13;;;1.70;;
51312;SDS011;37397;53.226;10.400;2023-08-17T08:11:47;2.92;;;1.35;;
51312;SDS011;37397;53.226;10.400;2023-08-17T08:14:14;5.78;;;1.90;;
51312;SDS011;37397;53.226;10.400;2023-08-17T08:16:40;3.88;;;1.80;;
51312;SDS011;37397;53.226;10.400;2023-08-17T08:19:07;4.50;;;1.90;;
51312;SDS011;37397;53.226;10.400;2023-08-17T08:21:33;6.32;;;2.00;;
51312;SDS011;37397;53.226;10.400;2023-08-17T08:24:00;3.65;;;1.75;;
51312;SDS011;37397;53.226;10.400;2023-08-17T08:26:26;6.78;;;1.75;;
51312;SDS011;37397;53.226;10.400;2023-08-17T08:28:53;4.70;;;1.80;;
51312;SDS011;37397;53.226;10.400;2023-08-17T08:31:19;4.90;;;2.10;;
51312;SDS011;37397;53.226;10.400;2023-08-17T08:33:46;3.58;;;1.90;;
51312;SDS011;37397;53.226;10.400;2023-08-17T08:36:12;3.85;;;1.65;;
51312;SDS011;37397;53.226;10.400;2023-08-17T08:38:39;2.78;;;1.85;;
51312;SDS011;37397;53.226;10.400;2023-08-17T08:41:06;5.97;;;1.95;;
51312;SDS011;37397;53.226;10.400;2023-08-17T08:43:35;4.93;;;1.90;;
51312;SDS011;37397;53.226;10.400;2023-08-17T08:46:01;3.90;;;1.60;;
51312;SDS011;37397;53.226;10.400;2023-08-17T08:48:28;4.28;;;1.70;;
51312;SDS011;37397;53.226;10.400;2023-08-17T08:50:55;4.07;;;1.60;;
51312;SDS011;37397;53.226;10.400;2023-08-17T08:53:24;2.92;;;1.75;;
51312;SDS011;37397;53.226;10.400;2023-08-17T08:56:02;4.88;;;2.00;;
51312;SDS011;37397;53.226;10.400;2023-08-17T08:58:29;5.00;;;1.85;;
51312;SDS011;37397;53.226;10.400;2023-08-17T09:00:57;4.50;;;1.80;;
51312;SDS011;37397;53.226;10.400;2023-08-17T09:03:25;5.78;;;1.98;;
51312;SDS011;37397;53.226;10.400;2023-08-17T09:05:52;5.32;;;1.90;;
51312;SDS011;37397;53.226;10.400;2023-08-17T09:08:24;4.40;;;2.10;;
51312;SDS011;37397;53.226;10.400;2023-08-17T09:10:53;3.78;;;1.63;;
51312;SDS011;37397;53.226;10.400;2023-08-17T09:13:20;3.88;;;1.70;;
51312;SDS011;37397;53.226;10.400;2023-08-17T09:15:47;4.63;;;1.80;;
51312;SDS011;37397;53.226;10.400;2023-08-17T09:18:14;4.20;;;1.95;;
51312;SDS011;37397;53.226;10.400;2023-08-17T09:20:43;4.65;;;1.98;;
51312;SDS011;37397;53.226;10.400;2023-08-17T09:23:15;4.22;;;1.90;;
51312;SDS011;37397;53.226;10.400;2023-08-17T09:25:49;3.90;;;1.90;;
51312;SDS011;37397;53.226;10.400;2023-08-17T09:28:18;2.70;;;1.67;;
51312;SDS011;37397;53.226;10.400;2023-08-17T09:31:03;3.30;;;2.05;;
51312;SDS011;37397;53.226;10.400;2023-08-17T09:33:30;4.30;;;1.90;;
51312;SDS011;37397;53.226;10.400;2023-08-17T09:35:58;4.15;;;2.15;;
51312;SDS011;37397;53.226;10.400;2023-08-17T09:38:26;5.30;;;2.20;;
51312;SDS011;37397;53.226;10.400;2023-08-17T09:40:53;3.22;;;1.63;;
51312;SDS011;37397;53.226;10.400;2023-08-17T09:43:20;5.25;;;2.20;;
51312;SDS011;37397;53.226;10.400;2023-08-17T09:45:47;4.45;;;2.33;;
51312;SDS011;37397;53.226;10.400;2023-08-17T09:48:16;6.47;;;2.20;;
51312;SDS011;37397;53.226;10.400;2023-08-17T09:50:44;4.68;;;2.20;;
51312;SDS011;37397;53.226;10.400;2023-08-17T09:53:13;4.18;;;1.92;;
51312;SDS011;37397;53.226;10.400;2023-08-17T09:55:41;5.10;;;1.92;;
51312;SDS011;37397;53.226;10.400;2023-08-17T09:58:09;3.65;;;2.00;;
51312;SDS011;37397;53.226;10.400;2023-08-17T10:00:44;7.00;;;2.08;;
51312;SDS011;37397;53.226;10.400;2023-08-17T10:03:17;5.43;;;1.80;;
51312;SDS011;37397;53.226;10.400;2023-08-17T10:05:55;3.72;;;1.80;;
51312;SDS011;37397;53.226;10.400;2023-08-17T10:08:22;4.47;;;1.88;;
51312;SDS011;37397;53.226;10.400;2023-08-17T10:10:49;4.85;;;2.00;;
51312;SDS011;37397;53.226;10.400;2023-08-17T10:13:26;4.45;;;2.25;;
51312;SDS011;37397;53.226;10.400;2023-08-17T10:16:01;4.80;;;1.92;;
51312;SDS011;37397;53.226;10.400;2023-08-17T10:18:41;5.53;;;2.28;;
51312;SDS011;37397;53.226;10.400;2023-08-17T10:21:39;3.67;;;1.75;;
51312;SDS011;37397;53.226;10.400;2023-08-17T10:24:09;3.83;;;1.90;;
51312;SDS011;37397;53.226;10.400;2023-08-17T10:26:37;4.30;;;1.65;;
51312;SDS011;37397;53.226;10.400;2023-08-17T10:29:05;2.40;;;1.52;;
51312;SDS011;37397;53.226;10.400;2023-08-17T10:31:43;2.92;;;1.75;;
51312;SDS011;37397;53.226;10.400;2023-08-17T10:34:13;3.08;;;1.60;;
51312;SDS011;37397;53.226;10.400;2023-08-17T10:36:41;5.65;;;1.95;;
51312;SDS011;37397;53.226;10.400;2023-08-17T10:39:21;3.13;;;1.80;;
51312;SDS011;37397;53.226;10.400;2023-08-17T10:41:54;5.78;;;1.90;;
51312;SDS011;37397;53.226;10.400;2023-08-17T10:47:30;4.40;;;1.80;;
51312;SDS011;37397;53.226;10.400;2023-08-17T10:50:21;4.20;;;1.95;;
51312;SDS011;37397;53.226;10.400;2023-08-17T10:52:49;4.28;;;1.77;;
51312;SDS011;37397;53.226;10.400;2023-08-17T10:55:16;3.63;;;1.65;;
51312;SDS011;37397;53.226;10.400;2023-08-17T10:57:45;3.92;;;1.80;;
51312;SDS011;37397;53.226;10.400;2023-08-17T11:00:15;5.68;;;1.83;;
51312;SDS011;37397;53.226;10.400;2023-08-17T11:02:54;2.75;;;1.50;;
51312;SDS011;37397;53.226;10.400;2023-08-17T11:05:46;5.60;;;1.90;;
51312;SDS011;37397;53.226;10.400;2023-08-17T11:08:20;6.88;;;2.20;;
51312;SDS011;37397;53.226;10.400;2023-08-17T11:10:47;3.60;;;1.70;;
51312;SDS011;37397;53.226;10.400;2023-08-17T11:13:35;6.30;;;1.85;;
51312;SDS011;37397;53.226;10.400;2023-08-17T11:16:04;4.18;;;1.70;;
51312;SDS011;37397;53.226;10.400;2023-08-17T11:18:32;5.00;;;2.00;;
51312;SDS011;37397;53.226;10.400;2023-08-17T11:20:59;3.58;;;1.77;;
51312;SDS011;37397;53.226;10.400;2023-08-17T11:23:28;6.07;;;1.77;;
51312;SDS011;37397;53.226;10.400;2023-08-17T11:25:56;3.25;;;1.70;;
51312;SDS011;37397;53.226;10.400;2023-08-17T11:28:23;4.75;;;1.83;;
51312;SDS011;37397;53.226;10.400;2023-08-17T11:30:57;3.80;;;1.48;;
51312;SDS011;37397;53.226;10.400;2023-08-17T11:33:26;3.20;;;1.70;;
51312;SDS011;37397;53.226;10.400;2023-08-17T11:35:54;4.63;;;2.00;;
51312;SDS011;37397;53.226;10.400;2023-08-17T11:38:21;3.55;;;1.60;;
51312;SDS011;37397;53.226;10.400;2023-08-17T11:40:48;6.95;;;1.90;;
51312;SDS011;37397;53.226;10.400;2023-08-17T11:43:16;4.80;;;1.60;;
51312;SDS011;37397;53.226;10.400;2023-08-17T11:45:47;6.80;;;2.08;;
51312;SDS011;37397;53.226;10.400;2023-08-17T11:48:14;2.15;;;1.50;;
51312;SDS011;37397;53.226;10.400;2023-08-17T11:50:43;4.45;;;1.83;;
51312;SDS011;37397;53.226;10.400;2023-08-17T11:53:09;2.70;;;1.50;;
51312;SDS011;37397;53.226;10.400;2023-08-17T11:55:36;3.00;;;1.73;;
51312;SDS011;37397;53.226;10.400;2023-08-17T11:58:03;2.65;;;1.70;;
51312;SDS011;37397;53.226;10.400;2023-08-17T12:00:36;2.80;;;1.75;;
51312;SDS011;37397;53.226;10.400;2023-08-17T12:03:07;6.25;;;1.80;;
51312;SDS011;37397;53.226;10.400;2023-08-17T12:05:34;3.80;;;1.67;;
51312;SDS011;37397;53.226;10.400;2023-08-17T12:08:01;2.50;;;1.80;;
51312;SDS011;37397;53.226;10.400;2023-08-17T12:10:28;3.20;;;1.80;;
51312;SDS011;37397;53.226;10.400;2023-08-17T12:12:58;4.57;;;1.95;;
51312;SDS011;37397;53.226;10.400;2023-08-17T12:15:32;3.22;;;1.77;;
51312;SDS011;37397;53.226;10.400;2023-08-17T12:18:01;3.97;;;2.13;;
51312;SDS011;37397;53.226;10.400;2023-08-17T12:20:29;4.07;;;1.90;;
51312;SDS011;37397;53.226;10.400;2023-08-17T12:22:57;6.20;;;2.05;;
51312;SDS011;37397;53.226;10.400;2023-08-17T12:25:25;2.35;;;1.90;;
51312;SDS011;37397;53.226;10.400;2023-08-17T12:27:52;3.15;;;1.88;;
51312;SDS011;37397;53.226;10.400;2023-08-17T12:30:31;4.38;;;1.70;;
51312;SDS011;37397;53.226;10.400;2023-08-17T12:33:03;4.43;;;1.70;;
51312;SDS011;37397;53.226;10.400;2023-08-17T12:35:31;4.25;;;1.75;;
51312;SDS011;37397;53.226;10.400;2023-08-17T12:37:58;3.60;;;1.67;;
51312;SDS011;37397;53.226;10.400;2023-08-17T12:40:25;4.05;;;1.77;;
51312;SDS011;37397;53.226;10.400;2023-08-17T12:42:51;2.85;;;1.80;;
51312;SDS011;37397;53.226;10.400;2023-08-17T12:45:18;2.50;;;1.80;;
51312;SDS011;37397;53.226;10.400;2023-08-17T12:47:44;4.72;;;1.77;;
51312;SDS011;37397;53.226;10.400;2023-08-17T12:50:11;4.10;;;1.70;;
51312;SDS011;37397;53.226;10.400;2023-08-17T12:52:38;4.53;;;2.22;;
51312;SDS011;37397;53.226;10.400;2023-08-17T12:55:04;3.75;;;1.75;;
51312;SDS011;37397;53.226;10.400;2023-08-17T12:57:31;2.60;;;1.63;;
51312;SDS011;37397;53.226;10.400;2023-08-17T12:59:58;3.65;;;2.10;;
51312;SDS011;37397;53.226;10.400;2023-08-17T13:02:24;3.65;;;1.95;;
51312;SDS011;37397;53.226;10.400;2023-08-17T13:04:51;4.07;;;1.90;;
51312;SDS011;37397;53.226;10.400;2023-08-17T13:07:18;2.80;;;1.90;;
51312;SDS011;37397;53.226;10.400;2023-08-17T13:09:44;5.72;;;2.30;;
51312;SDS011;37397;53.226;10.400;2023-08-17T13:12:13;4.95;;;2.10;;
51312;SDS011;37397;53.226;10.400;2023-08-17T13:14:39;4.03;;;2.00;;
51312;SDS011;37397;53.226;10.400;2023-08-17T13:17:07;4.53;;;1.92;;
51312;SDS011;37397;53.226;10.400;2023-08-17T13:19:34;3.13;;;2.15;;
51312;SDS011;37397;53.226;10.400;2023-08-17T13:22:00;4.90;;;1.77;;
51312;SDS011;37397;53.226;10.400;2023-08-17T13:24:28;4.38;;;1.80;;
51312;SDS011;37397;53.226;10.400;2023-08-17T13:26:55;5.70;;;2.40;;
51312;SDS011;37397;53.226;10.400;2023-08-17T13:29:23;4.43;;;1.98;;
51312;SDS011;37397;53.226;10.400;2023-08-17T13:31:50;2.90;;;1.75;;
51312;SDS011;37397;53.226;10.400;2023-08-17T13:34:16;4.55;;;1.88;;
51312;SDS011;37397;53.226;10.400;2023-08-17T13:36:43;2.90;;;1.80;;
51312;SDS011;37397;53.226;10.400;2023-08-17T13:39:09;4.57;;;2.38;;
51312;SDS011;37397;53.226;10.400;2023-08-17T13:41:36;4.32;;;1.88;;
51312;SDS011;37397;53.226;10.400;2023-08-17T13:44:03;5.00;;;1.98;;
51312;SDS011;37397;53.226;10.400;2023-08-17T13:46:30;5.53;;;2.15;;
51312;SDS011;37397;53.226;10.400;2023-08-17T13:48:56;3.72;;;1.75;;
51312;SDS011;37397;53.226;10.400;2023-08-17T13:51:23;2.78;;;1.70;;
51312;SDS011;37397;53.226;10.400;2023-08-17T13:53:50;2.80;;;1.65;;
51312;SDS011;37397;53.226;10.400;2023-08-17T13:56:16;4.05;;;1.83;;
51312;SDS011;37397;53.226;10.400;2023-08-17T13:58:43;3.88;;;1.88;;
51312;SDS011;37397;53.226;10.400;2023-08-17T14:01:10;5.65;;;2.00;;
51312;SDS011;37397;53.226;10.400;2023-08-17T14:03:38;3.97;;;1.88;;
51312;SDS011;37397;53.226;10.400;2023-08-17T14:06:04;3.22;;;1.88;;
51312;SDS011;37397;53.226;10.400;2023-08-17T14:08:31;3.45;;;1.80;;
51312;SDS011;37397;53.226;10.400;2023-08-17T14:10:58;4.15;;;1.77;;
51312;SDS011;37397;53.226;10.400;2023-08-17T14:13:24;4.38;;;2.13;;
51312;SDS011;37397;53.226;10.400;2023-08-17T14:15:51;3.67;;;2.00;;
51312;SDS011;37397;53.226;10.400;2023-08-17T14:18:17;3.50;;;2.00;;
51312;SDS011;37397;53.226;10.400;2023-08-17T14:20:44;3.08;;;1.73;;
51312;SDS011;37397;53.226;10.400;2023-08-17T14:23:10;3.10;;;1.63;;
51312;SDS011;37397;53.226;10.400;2023-08-17T14:25:37;6.47;;;1.77;;
51312;SDS011;37397;53.226;10.400;2023-08-17T14:28:04;3.55;;;1.77;;
51312;SDS011;37397;53.226;10.400;2023-08-17T14:30:31;6.53;;;2.20;;
51312;SDS011;37397;53.226;10.400;2023-08-17T14:32:58;3.17;;;1.98;;
51312;SDS011;37397;53.226;10.400;2023-08-17T14:35:27;3.65;;;1.90;;
51312;SDS011;37397;53.226;10.400;2023-08-17T14:37:54;3.17;;;1.67;;
51312;SDS011;37397;53.226;10.400;2023-08-17T14:40:24;3.25;;;1.85;;
51312;SDS011;37397;53.226;10.400;2023-08-17T14:42:51;4.25;;;1.95;;
51312;SDS011;37397;53.226;10.400;2023-08-17T14:45:20;5.03;;;2.20;;